Time;durP1;ratioP1;P1;durP2;ratioP2;P2;SDS_P1;SDS_P2;PMS_P1;PMS_P2;Temp;Humidity;BMP_temperature;BMP_pressure;BME280_temperature;BME280_humidity;BME280_pressure;Samples;Min_cycle;Max_cycle;Signal;HPM_P1;HPM_P2
2022/11/03 00:02:18;;;;;;;10.60;3.40;;;10.10;81.10;;;;;;5040467;28;20037;-46
2022/11/03 00:04:44;;;;;;;8.43;2.78;;;10.10;81.20;;;;;;5041677;28;20017;-47
2022/11/03 00:07:18;;;;;;;9.95;2.65;;;10.20;81.10;;;;;;5040467;28;20029;-46
2022/11/03 00:09:46;;;;;;;7.10;2.17;;;10.20;81.10;;;;;;5001449;28;20043;-46
2022/11/03 00:12:13;;;;;;;12.05;2.97;;;10.20;81.10;;;;;;5033166;28;20366;-48
2022/11/03 00:14:40;;;;;;;8.63;2.53;;;10.20;81.00;;;;;;5016897;28;20125;-46
2022/11/03 00:17:07;;;;;;;11.15;2.28;;;10.20;81.00;;;;;;5036520;28;20025;-49
2022/11/03 00:19:34;;;;;;;11.90;3.03;;;10.20;81.00;;;;;;5050561;28;20366;-46
2022/11/03 00:22:02;;;;;;;17.88;3.55;;;10.10;80.90;;;;;;5039804;28;20033;-46
2022/11/03 00:24:28;;;;;;;8.90;2.70;;;10.10;81.00;;;;;;5032790;28;20037;-51
2022/11/03 00:26:56;;;;;;;9.07;2.35;;;10.20;81.00;;;;;;5033165;28;20033;-46
2022/11/03 00:29:26;;;;;;;13.05;3.03;;;10.20;81.00;;;;;;5033910;28;20029;-47
2022/11/03 00:31:53;;;;;;;9.10;3.08;;;10.10;81.20;;;;;;5037094;28;20025;-48
2022/11/03 00:34:18;;;;;;;9.52;2.95;;;10.10;81.10;;;;;;5034666;28;20042;-46
2022/11/03 00:36:44;;;;;;;8.50;2.47;;;10.10;81.10;;;;;;5049213;28;20021;-47
2022/11/03 00:39:11;;;;;;;13.35;2.90;;;10.20;81.20;;;;;;5033426;28;20079;-47
2022/11/03 00:41:38;;;;;;;11.40;3.63;;;10.20;81.00;;;;;;5023815;28;20025;-48
2022/11/03 00:44:06;;;;;;;14.93;3.33;;;10.10;80.80;;;;;;5041169;28;20437;-48
2022/11/03 00:46:37;;;;;;;10.65;2.78;;;10.20;81.00;;;;;;5039684;28;20032;-49
2022/11/03 00:49:08;;;;;;;10.45;2.75;;;10.20;81.10;;;;;;5042117;28;20534;-46
2022/11/03 00:51:35;;;;;;;10.35;3.10;;;10.20;81.10;;;;;;5032366;28;20022;-47
2022/11/03 00:54:04;;;;;;;11.38;2.65;;;10.10;81.10;;;;;;5033170;28;20060;-47
2022/11/03 00:56:40;;;;;;;9.40;2.47;;;10.20;81.10;;;;;;5032285;28;20043;-49
2022/11/03 00:59:08;;;;;;;8.98;3.30;;;10.20;81.20;;;;;;5033166;28;20033;-46
2022/11/03 01:01:45;;;;;;;10.50;2.58;;;10.20;81.10;;;;;;5038408;28;20056;-46
2022/11/03 01:06:59;;;;;;;8.85;2.95;;;10.20;81.20;;;;;;5034979;28;20043;-46
2022/11/03 01:09:46;;;;;;;11.95;2.63;;;10.20;81.10;;;;;;5033270;28;20048;-46
2022/11/03 01:12:32;;;;;;;10.27;2.78;;;10.20;81.10;;;;;;5033329;28;20018;-46
2022/11/03 01:14:59;;;;;;;10.98;3.10;;;10.20;81.20;;;;;;5033519;28;20026;-47
2022/11/03 01:17:27;;;;;;;12.02;2.83;;;10.30;81.20;;;;;;5031981;28;20486;-46
2022/11/03 01:19:54;;;;;;;12.07;2.85;;;10.20;81.20;;;;;;5032505;28;20029;-47
2022/11/03 01:22:23;;;;;;;9.02;2.70;;;10.20;81.30;;;;;;5031903;28;20041;-46
2022/11/03 01:24:54;;;;;;;9.57;2.88;;;10.20;81.20;;;;;;5039926;28;20052;-46
2022/11/03 01:27:22;;;;;;;11.77;3.03;;;10.30;81.10;;;;;;5032108;28;20036;-47
2022/11/03 01:29:50;;;;;;;6.40;2.50;;;10.20;81.20;;;;;;5036070;28;20363;-46
2022/11/03 01:32:18;;;;;;;8.82;3.25;;;10.30;81.00;;;;;;5034576;28;20435;-48
2022/11/03 01:34:46;;;;;;;9.93;3.45;;;10.20;80.90;;;;;;5032276;28;20411;-46
2022/11/03 01:37:14;;;;;;;8.00;3.53;;;10.20;80.80;;;;;;5048514;28;20033;-47
2022/11/03 01:39:41;;;;;;;8.27;2.78;;;10.20;80.80;;;;;;5046135;28;20032;-46
2022/11/03 01:42:12;;;;;;;10.63;2.60;;;10.30;80.90;;;;;;5032590;28;20028;-46
2022/11/03 01:44:47;;;;;;;8.82;3.35;;;10.20;80.80;;;;;;5015626;28;20087;-46
2022/11/03 01:47:32;;;;;;;11.60;3.38;;;10.20;81.00;;;;;;5034591;28;20040;-49
2022/11/03 01:50:04;;;;;;;13.70;3.15;;;10.20;81.10;;;;;;5032334;28;20081;-48
2022/11/03 01:52:52;;;;;;;9.63;2.63;;;10.20;81.00;;;;;;5033262;28;20036;-46
2022/11/03 01:55:28;;;;;;;13.48;3.05;;;10.20;81.10;;;;;;5035606;28;20497;-47
2022/11/03 01:57:59;;;;;;;15.35;3.53;;;10.20;81.10;;;;;;5002890;28;20029;-47
2022/11/03 02:00:26;;;;;;;11.75;2.70;;;10.20;81.10;;;;;;5038782;28;20013;-46
2022/11/03 02:02:55;;;;;;;12.65;3.38;;;10.20;81.00;;;;;;5046608;28;20322;-47
2022/11/03 02:05:26;;;;;;;16.20;4.38;;;10.20;81.10;;;;;;5036014;28;20036;-47
2022/11/03 02:08:27;;;;;;;13.32;2.58;;;10.20;81.20;;;;;;5040451;28;20049;-46
2022/11/03 02:10:55;;;;;;;8.23;3.03;;;10.20;81.20;;;;;;5032586;28;20469;-48
2022/11/03 02:13:24;;;;;;;11.25;2.90;;;10.10;81.50;;;;;;5055509;28;20454;-48
2022/11/03 02:16:06;;;;;;;7.43;2.13;;;10.10;81.50;;;;;;5052786;28;20066;-48
2022/11/03 02:18:33;;;;;;;19.02;2.80;;;10.10;81.60;;;;;;5030821;28;20120;-48
2022/11/03 02:21:14;;;;;;;13.18;2.90;;;10.00;81.60;;;;;;5035221;28;20037;-51
2022/11/03 02:23:55;;;;;;;14.55;3.65;;;10.00;82.00;;;;;;5003953;28;20470;-46
2022/11/03 02:26:22;;;;;;;10.70;2.83;;;10.00;82.00;;;;;;5055417;28;20037;-46
2022/11/03 02:28:48;;;;;;;11.27;2.83;;;10.00;81.90;;;;;;5054391;28;20029;-46
2022/11/03 02:31:26;;;;;;;14.15;2.90;;;10.00;81.80;;;;;;5042255;28;20462;-46
2022/11/03 02:34:16;;;;;;;9.38;2.72;;;10.00;82.00;;;;;;5034244;28;20030;-46
2022/11/03 02:36:51;;;;;;;11.52;2.95;;;10.00;82.00;;;;;;5034910;28;20029;-49
2022/11/03 02:39:41;;;;;;;11.43;3.22;;;10.00;82.00;;;;;;5019484;28;20061;-47
2022/11/03 02:42:11;;;;;;;6.82;2.10;;;10.00;82.20;;;;;;5035043;28;20111;-46
2022/11/03 02:44:41;;;;;;;12.10;3.65;;;9.90;82.50;;;;;;5035027;28;20033;-46
2022/11/03 02:47:12;;;;;;;14.27;2.88;;;9.90;82.70;;;;;;5054028;28;20037;-49
2022/11/03 02:49:52;;;;;;;11.20;2.53;;;9.90;82.60;;;;;;5048262;28;20130;-46
2022/11/03 02:52:37;;;;;;;;;;;9.90;82.60;;;;;;5018938;28;20105;-46
2022/11/03 02:55:29;;;;;;;10.75;2.42;;;10.00;82.50;;;;;;5034295;28;19992;-46
2022/11/03 02:58:02;;;;;;;12.15;2.80;;;10.00;82.30;;;;;;5054675;28;20029;-47
2022/11/03 03:00:33;;;;;;;10.32;2.83;;;9.90;82.70;;;;;;5035393;28;20374;-46
2022/11/03 03:03:13;;;;;;;16.30;3.47;;;9.90;82.80;;;;;;5034269;28;20082;-49
2022/11/03 03:05:44;;;;;;;11.65;3.75;;;9.90;82.90;;;;;;5033053;28;20021;-46
2022/11/03 03:08:22;;;;;;;9.18;2.90;;;9.90;83.10;;;;;;5034022;28;20588;-46
2022/11/03 03:10:51;;;;;;;8.85;2.47;;;9.90;83.20;;;;;;5035074;28;20057;-46
2022/11/03 03:13:20;;;;;;;6.13;2.38;;;9.80;83.40;;;;;;5035621;28;20106;-48
2022/11/03 03:16:24;;;;;;;16.30;3.15;;;9.80;83.30;;;;;;5037775;28;20025;-50
2022/11/03 03:19:16;;;;;;;16.77;4.25;;;9.90;83.40;;;;;;5017270;28;20037;-50
2022/11/03 03:21:48;;;;;;;15.93;3.70;;;9.90;83.10;;;;;;5033927;28;20029;-46
2022/11/03 03:24:24;;;;;;;15.35;3.03;;;9.90;83.20;;;;;;5033897;28;20033;-46
2022/11/03 03:26:57;;;;;;;12.02;2.72;;;9.90;83.00;;;;;;5017164;28;20040;-48
2022/11/03 03:29:32;;;;;;;12.02;2.65;;;9.90;83.10;;;;;;5035032;28;20060;-48
2022/11/03 03:32:06;;;;;;;10.75;2.83;;;9.90;83.10;;;;;;5031827;28;20029;-46
2022/11/03 03:34:34;;;;;;;8.70;2.80;;;9.90;83.00;;;;;;5034456;28;20134;-49
2022/11/03 03:37:06;;;;;;;10.27;3.63;;;9.90;83.10;;;;;;5017520;28;20029;-46
2022/11/03 03:39:37;;;;;;;8.77;2.10;;;9.90;83.10;;;;;;5034312;28;20056;-46
2022/11/03 03:42:07;;;;;;;9.35;2.40;;;9.90;83.00;;;;;;5017095;28;20462;-46
2022/11/03 03:44:38;;;;;;;13.48;2.53;;;9.90;83.30;;;;;;5033125;28;20037;-47
2022/11/03 03:47:13;;;;;;;10.05;2.65;;;9.80;83.40;;;;;;5036125;28;20044;-48
2022/11/03 03:49:39;;;;;;;13.25;2.97;;;9.80;83.30;;;;;;5017374;28;20469;-48
2022/11/03 03:52:08;;;;;;;10.02;2.33;;;9.80;83.50;;;;;;5017078;28;20052;-46
2022/11/03 03:54:35;;;;;;;14.65;3.53;;;9.80;83.50;;;;;;5033094;28;20056;-46
2022/11/03 03:57:04;;;;;;;12.18;2.83;;;9.80;83.40;;;;;;5033023;28;20033;-46
2022/11/03 03:59:30;;;;;;;10.02;3.35;;;9.70;83.50;;;;;;5018496;28;20088;-47
2022/11/03 04:01:57;;;;;;;22.10;5.55;;;9.70;83.50;;;;;;5036019;28;20413;-46
2022/11/03 04:04:26;;;;;;;11.93;3.28;;;9.80;83.70;;;;;;5032249;28;20041;-46
2022/11/03 04:07:45;;;;;;;8.40;3.15;;;9.70;83.70;;;;;;5036518;28;20049;-46
2022/11/03 04:09:40;;;;;;;11.98;3.22;;;9.70;83.70;;;;;;5044677;28;20077;-47
2022/11/03 04:23:19;;;;;;;12.77;3.35;;;9.70;83.90;;;;;;5033742;28;20056;-47
2022/11/03 04:25:55;;;;;;;9.15;2.95;;;9.70;84.00;;;;;;5034177;28;20025;-47
2022/11/03 04:28:21;;;;;;;7.35;2.42;;;9.80;83.60;;;;;;5017744;28;20036;-46
2022/11/03 04:30:47;;;;;;;17.75;4.35;;;9.80;83.70;;;;;;5028285;28;20037;-48
2022/11/03 04:33:19;;;;;;;8.95;2.30;;;9.90;83.50;;;;;;5042829;28;20032;-45
2022/11/03 04:35:46;;;;;;;9.35;2.40;;;9.90;83.50;;;;;;5042554;28;20025;-47
2022/11/03 04:38:31;;;;;;;8.68;2.30;;;9.90;83.30;;;;;;5041441;28;20473;-46
2022/11/03 04:41:00;;;;;;;8.98;2.20;;;9.90;83.30;;;;;;5043760;28;20029;-46
2022/11/03 04:43:34;;;;;;;14.20;3.33;;;9.90;83.50;;;;;;5042237;28;20029;-46
2022/11/03 04:46:02;;;;;;;14.65;2.33;;;9.90;83.50;;;;;;5038065;28;20369;-46
2022/11/03 04:48:32;;;;;;;13.85;3.10;;;9.90;83.40;;;;;;5032346;28;20107;-47
2022/11/03 04:50:59;;;;;;;11.13;2.72;;;9.90;83.40;;;;;;5041886;28;20421;-48
2022/11/03 04:53:32;;;;;;;9.52;2.45;;;9.90;83.20;;;;;;5043018;28;20052;-46
2022/11/03 04:55:59;;;;;;;8.63;2.40;;;9.90;83.20;;;;;;5041998;28;20025;-48
2022/11/03 04:58:33;;;;;;;8.60;2.28;;;9.90;83.20;;;;;;5038814;28;20378;-46
2022/11/03 05:01:03;;;;;;;10.27;2.78;;;9.90;83.10;;;;;;5044388;28;20110;-47
2022/11/03 05:03:38;;;;;;;9.18;2.28;;;9.90;83.10;;;;;;5033204;28;20469;-46
2022/11/03 05:06:37;;;;;;;8.00;2.50;;;9.90;83.10;;;;;;5053040;28;20098;-47
2022/11/03 05:09:19;;;;;;;10.35;2.30;;;9.90;83.30;;;;;;5048287;28;20028;-46
2022/11/03 05:11:46;;;;;;;11.45;3.15;;;9.90;83.20;;;;;;5032779;28;20040;-47
2022/11/03 05:14:32;;;;;;;9.52;2.17;;;9.90;83.30;;;;;;5028717;28;20071;-47
2022/11/03 05:17:06;;;;;;;7.75;2.33;;;9.90;83.30;;;;;;5036885;28;20030;-47
2022/11/03 05:19:38;;;;;;;11.82;2.90;;;9.90;83.00;;;;;;5043596;28;20091;-46
2022/11/03 05:22:18;;;;;;;12.20;2.72;;;9.90;83.00;;;;;;5042005;28;20032;-46
2022/11/03 05:24:45;;;;;;;10.32;2.55;;;10.00;83.00;;;;;;5033392;28;20029;-46
2022/11/03 05:27:20;;;;;;;11.00;2.35;;;9.90;83.00;;;;;;5032400;28;20112;-46
2022/11/03 05:29:49;;;;;;;12.68;3.10;;;9.90;83.10;;;;;;5008198;28;20059;-46
2022/11/03 05:32:21;;;;;;;11.52;2.72;;;9.90;83.10;;;;;;5041244;28;20044;-46
2022/11/03 05:34:51;;;;;;;10.15;2.70;;;9.90;83.10;;;;;;5020365;28;20036;-46
2022/11/03 05:37:35;;;;;;;9.15;2.65;;;10.00;83.00;;;;;;5036411;28;20493;-46
2022/11/03 05:40:31;;;;;;;12.07;2.60;;;10.00;82.80;;;;;;5037027;28;20045;-46
2022/11/03 05:42:59;;;;;;;13.55;2.78;;;10.00;83.00;;;;;;5051074;28;20048;-46
2022/11/03 05:45:36;;;;;;;12.52;2.70;;;10.00;82.90;;;;;;5026775;28;20039;-48
2022/11/03 05:48:18;;;;;;;12.15;2.70;;;10.00;82.70;;;;;;5045948;28;20037;-47
2022/11/03 05:50:47;;;;;;;11.48;2.47;;;10.00;82.90;;;;;;5036007;28;20041;-46
2022/11/03 05:53:30;;;;;;;7.57;2.40;;;10.00;82.80;;;;;;5035682;28;20040;-46
2022/11/03 05:56:00;;;;;;;10.82;2.75;;;10.00;82.90;;;;;;5036146;28;20048;-46
2022/11/03 05:58:34;;;;;;;11.80;2.75;;;10.10;82.90;;;;;;5036098;28;20029;-47
2022/11/03 06:01:25;;;;;;;11.95;2.42;;;10.00;82.80;;;;;;5043413;28;20041;-47
2022/11/03 06:03:52;;;;;;;5.47;1.90;;;10.00;83.10;;;;;;5036951;28;20048;-46
2022/11/03 06:06:24;;;;;;;11.73;2.92;;;10.00;83.10;;;;;;5046481;28;20123;-48
2022/11/03 06:08:51;;;;;;;7.38;2.20;;;10.00;83.00;;;;;;5045162;28;20048;-46
2022/11/03 06:11:32;;;;;;;8.85;2.45;;;10.00;83.00;;;;;;5042053;28;20021;-46
2022/11/03 06:14:21;;;;;;;10.93;2.40;;;10.00;83.00;;;;;;5041942;28;20022;-46
2022/11/03 06:17:17;;;;;;;7.85;2.17;;;10.00;82.90;;;;;;5044877;28;20036;-46
2022/11/03 06:19:48;;;;;;;9.70;3.22;;;10.10;83.00;;;;;;5041969;28;20041;-46
2022/11/03 06:22:30;;;;;;;13.98;3.35;;;10.10;83.00;;;;;;5039180;28;20466;-46
2022/11/03 06:25:27;;;;;;;12.35;2.90;;;10.00;83.20;;;;;;5036471;28;20037;-46
2022/11/03 06:28:00;;;;;;;13.95;3.13;;;10.00;83.20;;;;;;5041760;28;20030;-46
2022/11/03 06:30:46;;;;;;;12.35;2.25;;;10.00;83.20;;;;;;5045025;28;20481;-46
2022/11/03 06:33:22;;;;;;;12.05;3.63;;;10.00;83.20;;;;;;5029882;28;20031;-47
2022/11/03 06:35:54;;;;;;;9.68;2.70;;;10.00;83.20;;;;;;5044749;28;20446;-46
2022/11/03 06:38:28;;;;;;;12.52;2.90;;;10.00;83.20;;;;;;5028864;28;20033;-47
2022/11/03 06:40:57;;;;;;;10.05;2.35;;;10.00;83.40;;;;;;5015733;28;20033;-49
2022/11/03 06:43:27;;;;;;;13.65;3.70;;;9.90;83.60;;;;;;5043458;28;20355;-45
2022/11/03 06:46:06;;;;;;;;;;;9.90;83.70;;;;;;5038817;28;20410;-46
2022/11/03 06:48:34;;;;;;;9.20;2.38;;;9.90;83.80;;;;;;5046470;28;20360;-48
2022/11/03 06:51:00;;;;;;;15.80;3.55;;;9.90;83.80;;;;;;5045598;28;20587;-46
2022/11/03 06:53:32;;;;;;;9.88;3.15;;;9.90;83.90;;;;;;5050970;28;20032;-47
2022/11/03 06:56:03;;;;;;;13.52;2.97;;;9.90;84.00;;;;;;5043763;28;20017;-47
2022/11/03 06:58:39;;;;;;;6.80;2.28;;;9.90;83.90;;;;;;5053609;28;20092;-46
2022/11/03 07:01:29;;;;;;;10.40;3.15;;;9.90;84.00;;;;;;5042376;28;20014;-46
2022/11/03 07:04:17;;;;;;;9.95;2.97;;;9.90;84.00;;;;;;5040308;28;20029;-47
2022/11/03 07:06:47;;;;;;;16.92;3.15;;;10.00;83.90;;;;;;5036403;28;20371;-47
2022/11/03 07:09:27;;;;;;;9.95;3.13;;;10.00;83.90;;;;;;5042508;28;20037;-46
2022/11/03 07:11:57;;;;;;;8.85;2.67;;;10.10;83.70;;;;;;5042253;28;20332;-47
2022/11/03 07:14:45;;;;;;;11.20;2.88;;;10.10;83.70;;;;;;5041400;28;20029;-46
2022/11/03 07:17:32;;;;;;;8.50;2.80;;;10.10;83.80;;;;;;5041899;28;20096;-46
2022/11/03 07:20:00;;;;;;;18.45;3.28;;;10.10;83.50;;;;;;5038791;28;20087;-46
2022/11/03 07:22:27;;;;;;;7.50;2.80;;;10.20;83.50;;;;;;5033620;28;20034;-46
2022/11/03 07:24:58;;;;;;;16.05;2.83;;;10.10;83.80;;;;;;5035387;28;20083;-51
2022/11/03 07:27:37;;;;;;;10.27;2.13;;;10.10;83.80;;;;;;5036622;28;20131;-48
2022/11/03 07:30:28;;;;;;;10.98;3.03;;;10.20;83.70;;;;;;5043897;28;20312;-46
2022/11/03 07:33:01;;;;;;;9.52;2.67;;;10.20;83.80;;;;;;5045442;28;20080;-46
2022/11/03 07:35:39;;;;;;;8.88;2.90;;;10.30;83.50;;;;;;5028181;28;20025;-47
2022/11/03 07:38:20;;;;;;;8.38;3.00;;;10.30;83.40;;;;;;5036618;28;20083;-46
2022/11/03 07:40:48;;;;;;;12.05;3.72;;;10.40;83.40;;;;;;5026507;28;20036;-46
2022/11/03 07:43:22;;;;;;;16.13;3.50;;;10.40;83.40;;;;;;5040635;28;20022;-46
2022/11/03 07:46:14;;;;;;;15.20;3.20;;;10.40;83.40;;;;;;5039477;28;20052;-46
2022/11/03 07:48:50;;;;;;;13.48;2.47;;;10.50;83.30;;;;;;5042224;28;20095;-47
2022/11/03 07:51:40;;;;;;;17.15;3.35;;;10.50;83.40;;;;;;5041235;28;20118;-47
2022/11/03 07:54:31;;;;;;;11.70;2.88;;;10.60;83.30;;;;;;5042804;28;20033;-48
2022/11/03 07:57:22;;;;;;;7.10;1.85;;;10.60;83.10;;;;;;5045745;28;20485;-46
2022/11/03 08:00:08;;;;;;;11.95;2.60;;;10.70;83.20;;;;;;5042636;28;20033;-46
2022/11/03 08:02:43;;;;;;;11.25;3.58;;;10.70;83.00;;;;;;5045912;28;20029;-46
2022/11/03 08:05:13;;;;;;;13.30;3.72;;;10.80;83.40;;;;;;5031920;28;20052;-46
2022/11/03 08:07:40;;;;;;;10.57;2.63;;;10.90;83.30;;;;;;5038488;28;20025;-46
2022/11/03 08:10:09;;;;;;;10.90;2.80;;;10.90;83.20;;;;;;5033815;28;20040;-46
2022/11/03 08:12:36;;;;;;;9.52;4.13;;;11.00;83.30;;;;;;5043524;28;20036;-46
2022/11/03 08:15:03;;;;;;;15.35;3.55;;;11.00;82.50;;;;;;5053607;28;20087;-47
2022/11/03 08:17:31;;;;;;;10.27;2.95;;;11.20;82.40;;;;;;5046562;28;20044;-46
2022/11/03 08:19:58;;;;;;;5.43;2.22;;;11.20;82.40;;;;;;5050257;28;20080;-46
2022/11/03 08:22:28;;;;;;;8.82;3.38;;;11.20;82.10;;;;;;5034206;28;20017;-47
2022/11/03 08:24:55;;;;;;;;;;;11.30;82.20;;;;;;5034094;28;20040;-49
2022/11/03 08:27:23;;;;;;;13.27;3.13;;;11.30;82.20;;;;;;5039446;28;19916;-46
2022/11/03 08:29:49;;;;;;;12.15;3.30;;;11.40;82.10;;;;;;5053541;28;20025;-50
2022/11/03 08:32:16;;;;;;;13.25;3.75;;;11.40;82.10;;;;;;5038280;28;20361;-47
2022/11/03 08:34:42;;;;;;;9.82;2.78;;;11.40;82.20;;;;;;5033633;28;20029;-48
2022/11/03 08:37:10;;;;;;;8.23;2.50;;;11.40;82.00;;;;;;5035308;28;21473;-46
2022/11/03 08:39:36;;;;;;;10.52;3.17;;;11.50;82.00;;;;;;5046640;28;20029;-47
2022/11/03 08:42:04;;;;;;;10.45;3.20;;;11.50;82.30;;;;;;5051632;28;20025;-47
2022/11/03 08:44:33;;;;;;;10.40;2.30;;;11.50;82.10;;;;;;5039340;28;20437;-49
2022/11/03 08:47:01;;;;;;;10.95;3.05;;;11.60;82.10;;;;;;5038088;28;20036;-46
2022/11/03 08:49:29;;;;;;;10.30;3.03;;;11.60;82.00;;;;;;5035508;28;20355;-47
2022/11/03 08:51:59;;;;;;;9.35;2.90;;;11.60;82.10;;;;;;5041114;28;20431;-46
2022/11/03 08:54:27;;;;;;;10.97;2.90;;;11.70;82.00;;;;;;5051572;28;20037;-46
2022/11/03 08:56:55;;;;;;;11.23;3.05;;;11.80;82.00;;;;;;5039223;28;20288;-47
2022/11/03 08:59:21;;;;;;;12.60;3.28;;;11.80;81.90;;;;;;5032056;28;20420;-47
2022/11/03 09:01:49;;;;;;;8.60;3.03;;;11.90;81.80;;;;;;5035053;28;20033;-49
2022/11/03 09:04:19;;;;;;;8.75;2.45;;;11.90;81.70;;;;;;5032307;28;20732;-47
2022/11/03 09:06:46;;;;;;;11.77;3.97;;;11.90;82.00;;;;;;5032046;28;20493;-46
2022/11/03 09:09:13;;;;;;;9.25;2.75;;;11.90;81.80;;;;;;5032864;28;20052;-46
2022/11/03 09:11:40;;;;;;;8.18;2.28;;;11.90;82.10;;;;;;5032540;28;20398;-46
2022/11/03 09:14:06;;;;;;;10.85;2.72;;;12.00;82.20;;;;;;5032551;28;20454;-46
2022/11/03 09:16:32;;;;;;;12.15;2.88;;;12.10;81.90;;;;;;5045121;28;20039;-46
2022/11/03 09:18:58;;;;;;;12.80;3.72;;;12.10;81.80;;;;;;5051744;28;20075;-47
2022/11/03 09:21:25;;;;;;;9.70;3.00;;;12.10;82.10;;;;;;5052904;28;20449;-48
2022/11/03 09:23:52;;;;;;;11.30;3.28;;;12.20;82.00;;;;;;5044336;28;20059;-46
2022/11/03 09:26:19;;;;;;;12.15;3.45;;;12.30;82.00;;;;;;5032495;28;20057;-46
2022/11/03 09:28:55;;;;;;;11.77;3.08;;;12.40;81.50;;;;;;5024099;28;20041;-47
2022/11/03 09:31:27;;;;;;;11.43;2.83;;;12.50;81.40;;;;;;5047529;28;20025;-47
2022/11/03 09:33:54;;;;;;;12.02;3.92;;;12.60;81.20;;;;;;5052521;28;20302;-46
2022/11/03 09:36:19;;;;;;;10.27;3.50;;;12.70;81.10;;;;;;5047956;28;20785;-47
2022/11/03 09:38:47;;;;;;;11.40;2.38;;;12.90;80.60;;;;;;5044030;28;20041;-47
2022/11/03 09:41:16;;;;;;;9.88;3.22;;;12.90;80.60;;;;;;5051103;28;20056;-47
2022/11/03 09:43:45;;;;;;;13.52;3.05;;;13.20;80.20;;;;;;5039459;28;20102;-47
2022/11/03 09:46:13;;;;;;;10.75;2.83;;;13.30;79.90;;;;;;5031688;28;20037;-47
2022/11/03 09:48:43;;;;;;;8.65;3.30;;;13.30;79.70;;;;;;5014484;28;20750;-48
2022/11/03 09:51:17;;;;;;;10.90;2.95;;;13.30;79.60;;;;;;5031214;28;20486;-50
2022/11/03 09:53:46;;;;;;;8.80;2.50;;;13.30;79.60;;;;;;5035016;28;20021;-48
2022/11/03 09:56:11;;;;;;;11.15;3.03;;;13.30;79.90;;;;;;5051602;28;20078;-49
2022/11/03 09:58:39;;;;;;;12.25;3.97;;;13.40;79.70;;;;;;5039617;28;20104;-50
2022/11/03 10:01:11;;;;;;;8.00;2.53;;;13.30;79.80;;;;;;5037451;28;20172;-53
2022/11/03 10:03:39;;;;;;;6.90;2.47;;;13.30;79.70;;;;;;5039787;28;20048;-47
2022/11/03 10:06:09;;;;;;;10.00;2.95;;;13.30;79.50;;;;;;5051922;28;20017;-47
2022/11/03 10:08:47;;;;;;;11.73;3.42;;;13.30;80.10;;;;;;5035969;28;20044;-47
2022/11/03 10:11:14;;;;;;;7.35;2.92;;;13.20;80.30;;;;;;5032237;28;20431;-50
2022/11/03 10:13:46;;;;;;;10.43;3.00;;;13.30;80.00;;;;;;5032364;28;20048;-49
2022/11/03 10:16:20;;;;;;;10.93;3.03;;;13.30;80.10;;;;;;5020637;28;20039;-48
2022/11/03 10:18:47;;;;;;;9.93;3.13;;;13.30;80.30;;;;;;5032197;28;20128;-47
2022/11/03 10:21:19;;;;;;;10.13;3.35;;;13.40;80.10;;;;;;5035149;28;20021;-47
2022/11/03 10:23:49;;;;;;;9.05;2.95;;;13.40;80.10;;;;;;5025092;28;20041;-46
2022/11/03 10:26:20;;;;;;;11.15;2.90;;;13.50;79.60;;;;;;5052551;28;20035;-51
2022/11/03 10:29:08;;;;;;;8.63;2.33;;;13.50;79.80;;;;;;5054568;28;20126;-47
2022/11/03 10:31:36;;;;;;;8.68;3.33;;;13.50;79.90;;;;;;5043062;28;20037;-47
2022/11/03 10:34:25;;;;;;;11.30;2.58;;;13.50;79.90;;;;;;5043677;28;20018;-52
2022/11/03 10:37:25;;;;;;;10.80;2.50;;;13.50;79.80;;;;;;5042191;28;20525;-49
2022/11/03 10:39:53;;;;;;;;;;;13.50;80.00;;;;;;5034966;28;20818;-47
2022/11/03 10:42:36;;;;;;;8.18;2.72;;;13.50;80.20;;;;;;5035518;28;19905;-47
2022/11/03 10:45:29;;;;;;;9.00;3.17;;;13.50;80.70;;;;;;5045498;28;20405;-47
2022/11/03 10:48:05;;;;;;;7.32;3.03;;;13.50;80.50;;;;;;5049101;28;20037;-48
2022/11/03 10:50:36;;;;;;;8.57;3.03;;;13.50;80.60;;;;;;5052736;28;20174;-52
2022/11/03 10:53:03;;;;;;;9.95;2.40;;;13.50;80.60;;;;;;5047062;28;20021;-48
2022/11/03 10:55:31;;;;;;;12.50;2.65;;;13.50;80.70;;;;;;5045767;28;20036;-47
2022/11/03 10:57:58;;;;;;;7.68;2.67;;;13.60;80.30;;;;;;5044118;28;20040;-47
2022/11/03 11:00:24;;;;;;;9.90;3.17;;;13.60;80.10;;;;;;5039667;28;20898;-48
2022/11/03 11:02:59;;;;;;;12.52;3.75;;;13.70;79.70;;;;;;5035619;28;20113;-50
2022/11/03 11:05:26;;;;;;;10.52;2.55;;;13.80;79.60;;;;;;5034793;28;20033;-47
2022/11/03 11:07:55;;;;;;;10.07;3.20;;;13.80;79.60;;;;;;5037198;28;20024;-52
2022/11/03 11:10:29;;;;;;;9.77;2.95;;;13.90;79.70;;;;;;5044609;28;20056;-48
2022/11/03 11:13:28;;;;;;;10.45;2.70;;;14.00;79.30;;;;;;5047727;28;20435;-51
2022/11/03 11:16:06;;;;;;;12.98;3.17;;;14.10;78.80;;;;;;5036170;28;20128;-47
2022/11/03 11:18:34;;;;;;;11.68;3.40;;;14.20;78.60;;;;;;5036842;28;20041;-49
2022/11/03 11:21:23;;;;;;;9.75;2.78;;;14.20;78.10;;;;;;5035640;28;20044;-48
2022/11/03 11:23:51;;;;;;;13.23;3.13;;;14.30;77.70;;;;;;5033252;28;20049;-47
2022/11/03 11:26:40;;;;;;;14.55;3.28;;;14.30;78.20;;;;;;5035180;28;20107;-50
2022/11/03 11:29:15;;;;;;;9.02;2.63;;;14.40;78.10;;;;;;5047918;28;20035;-51
2022/11/03 11:32:18;;;;;;;10.18;2.95;;;14.40;77.60;;;;;;5044100;28;20035;-47
2022/11/03 11:34:45;;;;;;;7.40;2.42;;;14.50;77.70;;;;;;5054245;28;20029;-49
2022/11/03 11:37:13;;;;;;;6.70;2.03;;;14.40;77.40;;;;;;5043734;28;20444;-51
2022/11/03 11:39:57;;;;;;;11.07;3.30;;;14.40;77.90;;;;;;5034422;28;20041;-50
2022/11/03 11:42:25;;;;;;;9.20;3.58;;;14.40;77.70;;;;;;5036787;28;20508;-47
2022/11/03 11:44:56;;;;;;;10.40;2.63;;;14.50;77.30;;;;;;5042796;28;20028;-47
2022/11/03 11:47:35;;;;;;;10.63;3.42;;;14.60;77.20;;;;;;5052155;28;20100;-48
2022/11/03 11:50:12;;;;;;;14.10;3.92;;;14.60;76.80;;;;;;5050260;28;20048;-47
2022/11/03 11:53:08;;;;;;;7.93;2.85;;;14.60;77.40;;;;;;5034000;28;20057;-46
2022/11/03 11:55:46;;;;;;;7.28;2.55;;;14.70;77.10;;;;;;5016543;28;20039;-52
2022/11/03 11:58:43;;;;;;;12.02;3.67;;;14.70;77.10;;;;;;5032742;28;20039;-47
2022/11/03 12:01:29;;;;;;;8.93;2.88;;;14.60;76.90;;;;;;5032912;28;20052;-46
2022/11/03 12:04:18;;;;;;;11.27;3.10;;;14.50;77.30;;;;;;5032696;28;20080;-47
2022/11/03 12:06:52;;;;;;;9.93;2.45;;;14.50;77.50;;;;;;5033242;28;20043;-49
2022/11/03 12:09:19;;;;;;;9.88;2.42;;;14.40;77.50;;;;;;5016546;28;20046;-47
2022/11/03 12:11:55;;;;;;;7.65;2.30;;;14.40;76.80;;;;;;5033845;28;20037;-47
2022/11/03 12:14:30;;;;;;;10.43;2.83;;;14.30;77.20;;;;;;5036725;28;20026;-51
2022/11/03 12:17:20;;;;;;;8.05;3.30;;;14.30;78.30;;;;;;5034822;28;20028;-47
2022/11/03 12:19:55;;;;;;;10.43;3.00;;;14.30;77.90;;;;;;5031579;28;20044;-50
2022/11/03 12:22:29;;;;;;;9.40;3.33;;;14.30;77.20;;;;;;5016930;28;20033;-48
2022/11/03 12:24:59;;;;;;;10.30;2.83;;;14.20;77.10;;;;;;5033220;28;20029;-49
2022/11/03 12:27:28;;;;;;;12.00;2.47;;;14.20;77.60;;;;;;5032332;28;20443;-47
2022/11/03 12:29:59;;;;;;;5.78;2.13;;;14.20;77.20;;;;;;5040823;28;20052;-47
2022/11/03 12:32:28;;;;;;;8.07;2.60;;;14.20;77.20;;;;;;5051198;28;20062;-47
2022/11/03 12:34:55;;;;;;;9.48;2.55;;;14.10;77.10;;;;;;5052451;28;20029;-49
2022/11/03 12:37:22;;;;;;;8.80;2.50;;;14.10;76.80;;;;;;5042731;28;20120;-47
2022/11/03 12:39:49;;;;;;;12.13;2.75;;;14.10;76.90;;;;;;5046263;28;20045;-47
2022/11/03 12:42:18;;;;;;;9.38;2.40;;;14.20;76.60;;;;;;5048183;28;20059;-47
2022/11/03 12:44:49;;;;;;;;;;;14.20;75.90;;;;;;5048965;28;20371;-48
2022/11/03 12:47:18;;;;;;;13.65;2.95;;;14.30;75.90;;;;;;5032309;28;20437;-48
2022/11/03 12:49:45;;;;;;;11.07;2.13;;;14.40;75.70;;;;;;5032428;28;20053;-48
2022/11/03 12:52:13;;;;;;;8.88;2.38;;;14.40;74.70;;;;;;5051065;28;20354;-47
2022/11/03 12:54:41;;;;;;;14.38;2.75;;;14.40;74.80;;;;;;5046018;28;20026;-49
2022/11/03 12:57:09;;;;;;;10.60;2.50;;;14.30;74.80;;;;;;5038476;28;20024;-47
2022/11/03 12:59:35;;;;;;;11.20;3.40;;;14.30;75.40;;;;;;5041281;28;20021;-48
2022/11/03 13:02:04;;;;;;;12.23;2.78;;;14.40;75.80;;;;;;5041339;28;20044;-46
2022/11/03 13:04:30;;;;;;;10.25;2.42;;;14.30;75.70;;;;;;5050208;28;20059;-49
2022/11/03 13:06:56;;;;;;;11.25;3.30;;;14.30;75.90;;;;;;5051966;28;20029;-53
2022/11/03 13:09:23;;;;;;;12.77;3.47;;;14.20;76.50;;;;;;5033476;28;20037;-51
2022/11/03 13:14:35;;;;;;;10.98;2.58;;;14.10;76.20;;;;;;5036197;28;20095;-48
2022/11/03 13:17:02;;;;;;;10.75;2.80;;;14.10;76.60;;;;;;5051234;28;20086;-49
2022/11/03 13:19:29;;;;;;;7.32;3.35;;;14.00;77.00;;;;;;5036060;28;20136;-48
2022/11/03 13:21:56;;;;;;;6.93;2.92;;;14.00;76.80;;;;;;5032518;28;20030;-49
2022/11/03 13:24:23;;;;;;;10.98;3.00;;;13.90;76.90;;;;;;5031891;28;20465;-52
2022/11/03 13:26:52;;;;;;;6.95;2.15;;;13.90;77.00;;;;;;5040291;28;20473;-48
2022/11/03 13:29:20;;;;;;;9.60;2.70;;;13.90;77.00;;;;;;5031641;28;20121;-49
2022/11/03 13:31:47;;;;;;;6.57;2.38;;;13.90;76.60;;;;;;5048441;28;20393;-50